Larnaca, Cyprus

10:55 AM EEST on August 31, 2015 (GMT +0300)
Larnaca | | Change Station
CLOSE
Current Station
Airport
Location: Larnaca,
Elevation: 7 ft
Nearby Weather Stations

Elev 7 ft 34.87 °N, 33.62 °E | Updated 55 minutes ago

Clear
Clear
88 °F
Feels Like 88 °F
N
6
Wind Variable Wind from SSE

Today
High -- | Low -- °F
--% Chance of Precip.
Yesterday
High -- | Low -- °F
Precip. -- in
6:17 AM 7:14 PM
Waning Gibbous, 96% visible
Pressure 29.83 in
Visibility -9999.0 miles
Clouds
Heat Index 88 °F
Dew Point 63 °F
Humidity 43%
Rainfall 0.00 in
Snow Depth Not available.
UV Not available.
Pollen Not available.
Air Quality Not available.
Flu Activity Not available.
METAR LCLK 310700Z 15005KT 120V210 CAVOK 31/17 Q1010 NOSIG
Pressure 29.83 in
Visibility -9999.0 miles
Clouds
Heat Index 88 °F
Dew Point 63 °F
Humidity 43%
Rainfall 0.00 in
Snow Depth Not available.
UV Not available.
Pollen Not available.
Air Quality Not available.
Flu Activity Not available.
METAR LCLK 310700Z 15005KT 120V210 CAVOK 31/17 Q1010 NOSIG

10-Day Weather Forecast

×

Almanac

Astronomy

Aug. 31, 2015 Rise Set
Actual Time
Civil Twilight
Nautical Twilight
Astronomical Twilight
Moon
Length of Visible Light
Length of Day
Tomorrow will be .
, % of the Moon is Illuminated

Today's Extremes

Country Highs Country Lows

Community

WunderPhotos

Upload Photos

1,851,220 photos uploaded!

WunderBlogs® & News

Nearby

Air Quality

  Air Quality AQ Index Pollutant
Not available.

Snow Depth

Station Depth Elevation

Earthquake Activity

City Distance Mag. Time & Date
Minimum magnitude displayed is 2.5.

Coastal Water Temperatures

Place Temperature

Stations

Nearby Weather Stations

Station Location Temp. Windchill Dew Point Humidity Wind Precip. Elev Updated Type